sensor_id;sensor_type;location;lat;lon;timestamp;temperature;humidity
40053;DHT22;25758;48.200;16.338;2022-08-19T00:01:31;26.30;77.10
40053;DHT22;25758;48.200;16.338;2022-08-19T00:04:02;26.40;77.20
40053;DHT22;25758;48.200;16.338;2022-08-19T00:06:29;26.30;77.40
40053;DHT22;25758;48.200;16.338;2022-08-19T00:08:56;26.30;77.40
40053;DHT22;25758;48.200;16.338;2022-08-19T00:11:22;26.30;77.70
40053;DHT22;25758;48.200;16.338;2022-08-19T00:13:48;26.30;77.90
40053;DHT22;25758;48.200;16.338;2022-08-19T00:16:16;26.30;78.10
40053;DHT22;25758;48.200;16.338;2022-08-19T00:18:47;26.30;78.60
40053;DHT22;25758;48.200;16.338;2022-08-19T00:21:13;26.30;79.10
40053;DHT22;25758;48.200;16.338;2022-08-19T00:23:40;26.30;79.40
40053;DHT22;25758;48.200;16.338;2022-08-19T00:26:06;26.30;79.70
40053;DHT22;25758;48.200;16.338;2022-08-19T00:28:32;26.30;80.00
40053;DHT22;25758;48.200;16.338;2022-08-19T00:30:59;26.30;79.80
40053;DHT22;25758;48.200;16.338;2022-08-19T00:33:25;26.20;79.80
40053;DHT22;25758;48.200;16.338;2022-08-19T00:35:51;26.20;80.30
40053;DHT22;25758;48.200;16.338;2022-08-19T00:38:16;26.20;80.20
40053;DHT22;25758;48.200;16.338;2022-08-19T00:40:43;26.20;80.60
40053;DHT22;25758;48.200;16.338;2022-08-19T00:43:12;26.20;80.60
40053;DHT22;25758;48.200;16.338;2022-08-19T00:45:41;26.20;80.80
40053;DHT22;25758;48.200;16.338;2022-08-19T00:48:09;26.20;80.90
40053;DHT22;25758;48.200;16.338;2022-08-19T00:50:34;26.10;80.90
40053;DHT22;25758;48.200;16.338;2022-08-19T00:53:02;26.10;81.20
40053;DHT22;25758;48.200;16.338;2022-08-19T00:55:31;26.10;81.60
40053;DHT22;25758;48.200;16.338;2022-08-19T00:58:02;26.10;81.70
40053;DHT22;25758;48.200;16.338;2022-08-19T01:00:30;26.10;81.70
40053;DHT22;25758;48.200;16.338;2022-08-19T01:02:56;26.10;81.50
40053;DHT22;25758;48.200;16.338;2022-08-19T01:05:27;26.10;81.70
40053;DHT22;25758;48.200;16.338;2022-08-19T01:07:55;26.00;81.90
40053;DHT22;25758;48.200;16.338;2022-08-19T01:10:25;26.00;81.70
40053;DHT22;25758;48.200;16.338;2022-08-19T01:12:52;26.00;82.20
40053;DHT22;25758;48.200;16.338;2022-08-19T01:15:23;26.00;82.30
40053;DHT22;25758;48.200;16.338;2022-08-19T01:17:49;26.00;82.30
40053;DHT22;25758;48.200;16.338;2022-08-19T01:20:19;26.00;82.20
40053;DHT22;25758;48.200;16.338;2022-08-19T01:22:51;25.90;81.80
40053;DHT22;25758;48.200;16.338;2022-08-19T01:25:20;25.90;81.90
40053;DHT22;25758;48.200;16.338;2022-08-19T01:27:48;25.90;81.80
40053;DHT22;25758;48.200;16.338;2022-08-19T01:30:18;25.90;81.60
40053;DHT22;25758;48.200;16.338;2022-08-19T01:32:44;25.90;81.60
40053;DHT22;25758;48.200;16.338;2022-08-19T01:35:11;25.90;81.60
40053;DHT22;25758;48.200;16.338;2022-08-19T01:38:04;25.90;81.70
40053;DHT22;25758;48.200;16.338;2022-08-19T01:40:38;25.70;81.50
40053;DHT22;25758;48.200;16.338;2022-08-19T01:43:04;25.70;81.40
40053;DHT22;25758;48.200;16.338;2022-08-19T01:45:33;25.70;81.20
40053;DHT22;25758;48.200;16.338;2022-08-19T01:48:00;25.60;80.90
40053;DHT22;25758;48.200;16.338;2022-08-19T01:50:27;25.50;81.00
40053;DHT22;25758;48.200;16.338;2022-08-19T01:52:53;25.60;81.10
40053;DHT22;25758;48.200;16.338;2022-08-19T01:55:21;25.50;80.90
40053;DHT22;25758;48.200;16.338;2022-08-19T01:57:53;25.50;81.00
40053;DHT22;25758;48.200;16.338;2022-08-19T02:00:22;25.40;81.00
40053;DHT22;25758;48.200;16.338;2022-08-19T02:02:48;25.40;81.30
40053;DHT22;25758;48.200;16.338;2022-08-19T02:05:14;25.50;81.30
40053;DHT22;25758;48.200;16.338;2022-08-19T02:07:44;25.40;80.80
40053;DHT22;25758;48.200;16.338;2022-08-19T02:10:13;25.30;80.80
40053;DHT22;25758;48.200;16.338;2022-08-19T02:12:40;25.30;80.60
40053;DHT22;25758;48.200;16.338;2022-08-19T02:15:07;25.20;80.30
40053;DHT22;25758;48.200;16.338;2022-08-19T02:17:34;25.20;80.30
40053;DHT22;25758;48.200;16.338;2022-08-19T02:20:00;25.20;79.70
40053;DHT22;25758;48.200;16.338;2022-08-19T02:22:26;25.20;78.80
40053;DHT22;25758;48.200;16.338;2022-08-19T02:24:52;25.20;78.70
40053;DHT22;25758;48.200;16.338;2022-08-19T02:27:18;25.30;78.60
40053;DHT22;25758;48.200;16.338;2022-08-19T02:29:46;25.30;78.80
40053;DHT22;25758;48.200;16.338;2022-08-19T02:32:12;25.30;79.10
40053;DHT22;25758;48.200;16.338;2022-08-19T02:34:39;25.40;79.60
40053;DHT22;25758;48.200;16.338;2022-08-19T02:37:05;25.40;79.90
40053;DHT22;25758;48.200;16.338;2022-08-19T02:39:31;25.40;80.30
40053;DHT22;25758;48.200;16.338;2022-08-19T02:41:56;25.40;80.50
40053;DHT22;25758;48.200;16.338;2022-08-19T02:44:24;25.40;81.00
40053;DHT22;25758;48.200;16.338;2022-08-19T02:46:51;25.30;81.60
40053;DHT22;25758;48.200;16.338;2022-08-19T02:49:16;25.40;81.90
40053;DHT22;25758;48.200;16.338;2022-08-19T02:51:44;25.40;82.20
40053;DHT22;25758;48.200;16.338;2022-08-19T02:54:11;25.30;82.40
40053;DHT22;25758;48.200;16.338;2022-08-19T02:56:39;25.40;82.70
40053;DHT22;25758;48.200;16.338;2022-08-19T02:59:05;25.30;82.80
40053;DHT22;25758;48.200;16.338;2022-08-19T03:01:33;25.30;83.00
40053;DHT22;25758;48.200;16.338;2022-08-19T03:04:02;25.30;83.20
40053;DHT22;25758;48.200;16.338;2022-08-19T03:06:29;25.30;83.60
40053;DHT22;25758;48.200;16.338;2022-08-19T03:08:55;25.30;83.70
40053;DHT22;25758;48.200;16.338;2022-08-19T03:11:26;25.30;83.60
40053;DHT22;25758;48.200;16.338;2022-08-19T03:13:52;25.40;83.70
40053;DHT22;25758;48.200;16.338;2022-08-19T03:16:19;25.40;83.70
40053;DHT22;25758;48.200;16.338;2022-08-19T03:18:45;25.40;83.90
40053;DHT22;25758;48.200;16.338;2022-08-19T03:21:20;25.40;83.80
40053;DHT22;25758;48.200;16.338;2022-08-19T03:23:46;25.40;83.90
40053;DHT22;25758;48.200;16.338;2022-08-19T03:26:12;25.50;83.90
40053;DHT22;25758;48.200;16.338;2022-08-19T03:28:41;25.50;84.00
40053;DHT22;25758;48.200;16.338;2022-08-19T03:31:12;25.50;83.80
40053;DHT22;25758;48.200;16.338;2022-08-19T03:33:38;25.50;84.00
40053;DHT22;25758;48.200;16.338;2022-08-19T03:38:35;25.50;84.40
40053;DHT22;25758;48.200;16.338;2022-08-19T03:41:07;25.50;84.50
40053;DHT22;25758;48.200;16.338;2022-08-19T03:43:37;25.40;84.70
40053;DHT22;25758;48.200;16.338;2022-08-19T03:46:09;25.40;84.70
40053;DHT22;25758;48.200;16.338;2022-08-19T03:48:36;25.40;84.80
40053;DHT22;25758;48.200;16.338;2022-08-19T03:51:02;25.40;84.80
40053;DHT22;25758;48.200;16.338;2022-08-19T03:53:30;25.40;84.80
40053;DHT22;25758;48.200;16.338;2022-08-19T03:55:57;25.40;84.90
40053;DHT22;25758;48.200;16.338;2022-08-19T03:58:25;25.40;84.80
40053;DHT22;25758;48.200;16.338;2022-08-19T04:00:53;25.40;84.80
40053;DHT22;25758;48.200;16.338;2022-08-19T04:03:18;25.40;84.90
40053;DHT22;25758;48.200;16.338;2022-08-19T04:05:45;25.40;85.00
40053;DHT22;25758;48.200;16.338;2022-08-19T04:08:11;25.40;84.90
40053;DHT22;25758;48.200;16.338;2022-08-19T04:10:38;25.40;85.10
40053;DHT22;25758;48.200;16.338;2022-08-19T04:13:04;25.40;85.00
40053;DHT22;25758;48.200;16.338;2022-08-19T04:15:31;25.40;85.20
40053;DHT22;25758;48.200;16.338;2022-08-19T04:18:01;25.40;85.30
40053;DHT22;25758;48.200;16.338;2022-08-19T04:20:27;25.40;84.90
40053;DHT22;25758;48.200;16.338;2022-08-19T04:22:53;25.40;84.90
40053;DHT22;25758;48.200;16.338;2022-08-19T04:25:19;25.30;85.00
40053;DHT22;25758;48.200;16.338;2022-08-19T04:27:44;25.30;84.80
40053;DHT22;25758;48.200;16.338;2022-08-19T04:30:12;25.30;84.90
40053;DHT22;25758;48.200;16.338;2022-08-19T04:32:38;25.30;85.10
40053;DHT22;25758;48.200;16.338;2022-08-19T04:35:04;25.30;85.00
40053;DHT22;25758;48.200;16.338;2022-08-19T04:37:31;25.30;84.90
40053;DHT22;25758;48.200;16.338;2022-08-19T04:39:58;25.30;84.90
40053;DHT22;25758;48.200;16.338;2022-08-19T04:42:43;25.40;85.10
40053;DHT22;25758;48.200;16.338;2022-08-19T04:45:12;25.30;85.20
40053;DHT22;25758;48.200;16.338;2022-08-19T04:47:43;25.40;85.30
40053;DHT22;25758;48.200;16.338;2022-08-19T04:50:10;25.30;85.20
40053;DHT22;25758;48.200;16.338;2022-08-19T04:52:38;25.40;85.30
40053;DHT22;25758;48.200;16.338;2022-08-19T04:55:11;25.40;85.00
40053;DHT22;25758;48.200;16.338;2022-08-19T04:57:38;25.40;85.10
40053;DHT22;25758;48.200;16.338;2022-08-19T05:00:06;25.40;85.20
40053;DHT22;25758;48.200;16.338;2022-08-19T05:02:33;25.40;85.30
40053;DHT22;25758;48.200;16.338;2022-08-19T05:04:58;25.40;85.60
40053;DHT22;25758;48.200;16.338;2022-08-19T05:07:26;25.40;85.50
40053;DHT22;25758;48.200;16.338;2022-08-19T05:09:52;25.40;85.50
40053;DHT22;25758;48.200;16.338;2022-08-19T05:12:18;25.40;85.70
40053;DHT22;25758;48.200;16.338;2022-08-19T05:14:45;25.40;85.70
40053;DHT22;25758;48.200;16.338;2022-08-19T05:17:12;25.50;86.00
40053;DHT22;25758;48.200;16.338;2022-08-19T05:19:38;25.50;86.30
40053;DHT22;25758;48.200;16.338;2022-08-19T05:22:22;25.40;86.60
40053;DHT22;25758;48.200;16.338;2022-08-19T05:24:58;25.50;86.90
40053;DHT22;25758;48.200;16.338;2022-08-19T05:27:24;25.40;87.50
40053;DHT22;25758;48.200;16.338;2022-08-19T05:29:50;25.30;87.80
40053;DHT22;25758;48.200;16.338;2022-08-19T05:32:15;25.30;88.00
40053;DHT22;25758;48.200;16.338;2022-08-19T05:34:41;25.30;88.10
40053;DHT22;25758;48.200;16.338;2022-08-19T05:37:08;25.30;88.20
40053;DHT22;25758;48.200;16.338;2022-08-19T05:39:35;25.20;88.60
40053;DHT22;25758;48.200;16.338;2022-08-19T05:42:08;25.20;89.20
40053;DHT22;25758;48.200;16.338;2022-08-19T05:44:39;25.10;89.00
40053;DHT22;25758;48.200;16.338;2022-08-19T05:47:08;25.00;89.30
40053;DHT22;25758;48.200;16.338;2022-08-19T05:49:35;25.00;89.40
40053;DHT22;25758;48.200;16.338;2022-08-19T05:52:08;25.00;89.60
40053;DHT22;25758;48.200;16.338;2022-08-19T05:54:34;24.90;90.00
40053;DHT22;25758;48.200;16.338;2022-08-19T05:57:02;24.80;90.20
40053;DHT22;25758;48.200;16.338;2022-08-19T05:59:27;24.90;90.20
40053;DHT22;25758;48.200;16.338;2022-08-19T06:01:54;24.80;90.20
40053;DHT22;25758;48.200;16.338;2022-08-19T06:04:20;24.80;90.30
40053;DHT22;25758;48.200;16.338;2022-08-19T06:06:47;24.80;90.30
40053;DHT22;25758;48.200;16.338;2022-08-19T06:09:14;24.80;90.30
40053;DHT22;25758;48.200;16.338;2022-08-19T06:11:48;24.80;90.40
40053;DHT22;25758;48.200;16.338;2022-08-19T06:14:18;24.70;90.40
40053;DHT22;25758;48.200;16.338;2022-08-19T06:16:45;24.80;90.50
40053;DHT22;25758;48.200;16.338;2022-08-19T06:19:15;24.70;90.50
40053;DHT22;25758;48.200;16.338;2022-08-19T06:21:44;24.70;90.60
40053;DHT22;25758;48.200;16.338;2022-08-19T06:24:12;24.60;90.80
40053;DHT22;25758;48.200;16.338;2022-08-19T06:26:40;24.60;90.90
40053;DHT22;25758;48.200;16.338;2022-08-19T06:29:07;24.70;90.90
40053;DHT22;25758;48.200;16.338;2022-08-19T06:31:35;24.70;90.80
40053;DHT22;25758;48.200;16.338;2022-08-19T06:34:02;24.70;90.90
40053;DHT22;25758;48.200;16.338;2022-08-19T06:36:38;24.70;90.90
40053;DHT22;25758;48.200;16.338;2022-08-19T06:39:08;24.70;90.80
40053;DHT22;25758;48.200;16.338;2022-08-19T06:41:40;24.70;90.80
40053;DHT22;25758;48.200;16.338;2022-08-19T06:44:07;24.80;90.80
40053;DHT22;25758;48.200;16.338;2022-08-19T06:46:33;24.80;90.70
40053;DHT22;25758;48.200;16.338;2022-08-19T06:48:58;24.80;90.80
40053;DHT22;25758;48.200;16.338;2022-08-19T06:51:25;24.90;90.80
40053;DHT22;25758;48.200;16.338;2022-08-19T06:53:53;24.90;90.80
40053;DHT22;25758;48.200;16.338;2022-08-19T06:56:25;24.90;90.80
40053;DHT22;25758;48.200;16.338;2022-08-19T06:58:56;24.90;90.80
40053;DHT22;25758;48.200;16.338;2022-08-19T07:01:22;24.90;90.80
40053;DHT22;25758;48.200;16.338;2022-08-19T07:03:48;24.90;90.80
40053;DHT22;25758;48.200;16.338;2022-08-19T07:06:16;25.00;90.80
40053;DHT22;25758;48.200;16.338;2022-08-19T07:08:44;25.00;90.70
40053;DHT22;25758;48.200;16.338;2022-08-19T07:11:12;25.10;90.70
40053;DHT22;25758;48.200;16.338;2022-08-19T07:13:39;25.10;90.70
40053;DHT22;25758;48.200;16.338;2022-08-19T07:16:06;25.20;90.70
40053;DHT22;25758;48.200;16.338;2022-08-19T07:18:32;25.20;90.60
40053;DHT22;25758;48.200;16.338;2022-08-19T07:21:05;25.30;90.60
40053;DHT22;25758;48.200;16.338;2022-08-19T07:23:31;25.30;90.50
40053;DHT22;25758;48.200;16.338;2022-08-19T07:25:57;25.50;90.50
40053;DHT22;25758;48.200;16.338;2022-08-19T07:28:22;25.50;90.30
40053;DHT22;25758;48.200;16.338;2022-08-19T07:30:48;25.50;90.20
40053;DHT22;25758;48.200;16.338;2022-08-19T07:33:15;25.60;90.10
40053;DHT22;25758;48.200;16.338;2022-08-19T07:35:42;25.70;90.00
40053;DHT22;25758;48.200;16.338;2022-08-19T07:38:08;25.70;89.80
40053;DHT22;25758;48.200;16.338;2022-08-19T07:40:34;25.80;88.90
40053;DHT22;25758;48.200;16.338;2022-08-19T07:43:00;25.90;88.90
40053;DHT22;25758;48.200;16.338;2022-08-19T07:45:26;25.90;88.40
40053;DHT22;25758;48.200;16.338;2022-08-19T07:47:53;26.00;88.30
40053;DHT22;25758;48.200;16.338;2022-08-19T07:50:21;26.10;88.10
40053;DHT22;25758;48.200;16.338;2022-08-19T07:52:48;26.20;88.10
40053;DHT22;25758;48.200;16.338;2022-08-19T07:55:16;26.20;87.70
40053;DHT22;25758;48.200;16.338;2022-08-19T07:57:42;26.40;87.20
40053;DHT22;25758;48.200;16.338;2022-08-19T08:00:08;26.60;86.60
40053;DHT22;25758;48.200;16.338;2022-08-19T08:02:34;26.80;85.60
40053;DHT22;25758;48.200;16.338;2022-08-19T08:05:00;27.10;85.30
40053;DHT22;25758;48.200;16.338;2022-08-19T08:07:44;27.40;83.50
40053;DHT22;25758;48.200;16.338;2022-08-19T08:10:28;27.80;82.50
40053;DHT22;25758;48.200;16.338;2022-08-19T08:12:53;28.00;81.40
40053;DHT22;25758;48.200;16.338;2022-08-19T08:15:21;28.20;81.50
40053;DHT22;25758;48.200;16.338;2022-08-19T08:17:46;28.40;81.30
40053;DHT22;25758;48.200;16.338;2022-08-19T08:20:13;28.70;80.10
40053;DHT22;25758;48.200;16.338;2022-08-19T08:22:46;28.90;79.30
40053;DHT22;25758;48.200;16.338;2022-08-19T08:25:31;29.10;78.60
40053;DHT22;25758;48.200;16.338;2022-08-19T08:27:57;29.30;76.70
40053;DHT22;25758;48.200;16.338;2022-08-19T08:30:26;29.40;75.70
40053;DHT22;25758;48.200;16.338;2022-08-19T08:32:53;29.60;76.10
40053;DHT22;25758;48.200;16.338;2022-08-19T08:35:22;29.70;76.30
40053;DHT22;25758;48.200;16.338;2022-08-19T08:37:49;29.80;75.50
40053;DHT22;25758;48.200;16.338;2022-08-19T08:46:03;30.10;74.90
40053;DHT22;25758;48.200;16.338;2022-08-19T08:48:46;30.10;74.60
40053;DHT22;25758;48.200;16.338;2022-08-19T08:51:18;30.30;74.20
40053;DHT22;25758;48.200;16.338;2022-08-19T08:53:46;30.40;74.00
40053;DHT22;25758;48.200;16.338;2022-08-19T08:56:13;30.40;73.60
40053;DHT22;25758;48.200;16.338;2022-08-19T09:01:11;30.50;73.70
40053;DHT22;25758;48.200;16.338;2022-08-19T09:03:38;30.50;73.80
40053;DHT22;25758;48.200;16.338;2022-08-19T09:06:14;30.40;73.40
40053;DHT22;25758;48.200;16.338;2022-08-19T09:09:03;30.40;73.40
40053;DHT22;25758;48.200;16.338;2022-08-19T09:11:55;30.40;73.90
40053;DHT22;25758;48.200;16.338;2022-08-19T09:14:49;30.50;73.90
40053;DHT22;25758;48.200;16.338;2022-08-19T09:17:16;30.70;74.30
40053;DHT22;25758;48.200;16.338;2022-08-19T09:22:41;30.90;72.90
40053;DHT22;25758;48.200;16.338;2022-08-19T09:25:16;31.20;72.90
40053;DHT22;25758;48.200;16.338;2022-08-19T09:27:42;31.30;72.30
40053;DHT22;25758;48.200;16.338;2022-08-19T09:30:14;31.40;72.60
40053;DHT22;25758;48.200;16.338;2022-08-19T09:32:40;31.60;71.90
40053;DHT22;25758;48.200;16.338;2022-08-19T09:35:08;31.70;71.50
40053;DHT22;25758;48.200;16.338;2022-08-19T09:37:34;31.80;71.40
40053;DHT22;25758;48.200;16.338;2022-08-19T09:40:00;31.90;70.90
40053;DHT22;25758;48.200;16.338;2022-08-19T09:42:25;32.00;70.90
40053;DHT22;25758;48.200;16.338;2022-08-19T09:44:51;32.10;70.80
40053;DHT22;25758;48.200;16.338;2022-08-19T09:47:17;32.10;70.20
40053;DHT22;25758;48.200;16.338;2022-08-19T09:49:42;32.10;70.00
40053;DHT22;25758;48.200;16.338;2022-08-19T09:52:09;32.20;69.90
40053;DHT22;25758;48.200;16.338;2022-08-19T09:54:36;32.20;69.50
40053;DHT22;25758;48.200;16.338;2022-08-19T09:57:02;32.30;69.10
40053;DHT22;25758;48.200;16.338;2022-08-19T09:59:28;32.40;69.00
40053;DHT22;25758;48.200;16.338;2022-08-19T10:01:54;32.40;69.40
40053;DHT22;25758;48.200;16.338;2022-08-19T10:04:20;32.60;69.50
40053;DHT22;25758;48.200;16.338;2022-08-19T10:07:08;32.70;69.00
40053;DHT22;25758;48.200;16.338;2022-08-19T10:09:34;32.50;68.50
40053;DHT22;25758;48.200;16.338;2022-08-19T10:12:01;32.50;68.70
40053;DHT22;25758;48.200;16.338;2022-08-19T10:14:27;32.40;68.90
40053;DHT22;25758;48.200;16.338;2022-08-19T10:16:53;32.30;69.00
40053;DHT22;25758;48.200;16.338;2022-08-19T10:19:19;32.30;69.10
40053;DHT22;25758;48.200;16.338;2022-08-19T10:21:46;32.20;69.20
40053;DHT22;25758;48.200;16.338;2022-08-19T10:24:12;32.10;69.30
40053;DHT22;25758;48.200;16.338;2022-08-19T10:26:39;32.00;69.20
40053;DHT22;25758;48.200;16.338;2022-08-19T10:29:07;31.90;69.30
40053;DHT22;25758;48.200;16.338;2022-08-19T10:31:34;31.90;69.40
40053;DHT22;25758;48.200;16.338;2022-08-19T10:34:00;31.80;69.60
40053;DHT22;25758;48.200;16.338;2022-08-19T10:36:32;31.60;70.00
40053;DHT22;25758;48.200;16.338;2022-08-19T10:39:00;31.40;70.20
40053;DHT22;25758;48.200;16.338;2022-08-19T10:41:30;31.40;70.60
40053;DHT22;25758;48.200;16.338;2022-08-19T10:43:58;31.30;71.00
40053;DHT22;25758;48.200;16.338;2022-08-19T10:46:26;31.20;71.00
40053;DHT22;25758;48.200;16.338;2022-08-19T10:48:52;31.10;71.50
40053;DHT22;25758;48.200;16.338;2022-08-19T10:51:19;30.90;72.50
40053;DHT22;25758;48.200;16.338;2022-08-19T10:54:04;30.90;73.20
40053;DHT22;25758;48.200;16.338;2022-08-19T10:56:30;30.70;72.30
40053;DHT22;25758;48.200;16.338;2022-08-19T10:59:15;30.60;72.70
40053;DHT22;25758;48.200;16.338;2022-08-19T11:01:43;30.40;74.70
40053;DHT22;25758;48.200;16.338;2022-08-19T11:04:09;30.30;74.80
40053;DHT22;25758;48.200;16.338;2022-08-19T11:06:40;30.20;75.40
40053;DHT22;25758;48.200;16.338;2022-08-19T11:09:07;30.10;75.30
40053;DHT22;25758;48.200;16.338;2022-08-19T11:11:34;30.00;75.70
40053;DHT22;25758;48.200;16.338;2022-08-19T11:14:05;29.90;76.40
40053;DHT22;25758;48.200;16.338;2022-08-19T11:16:30;29.80;76.70
40053;DHT22;25758;48.200;16.338;2022-08-19T11:18:58;29.70;76.80
40053;DHT22;25758;48.200;16.338;2022-08-19T11:21:33;29.60;76.10
40053;DHT22;25758;48.200;16.338;2022-08-19T11:24:05;29.50;75.50
40053;DHT22;25758;48.200;16.338;2022-08-19T11:26:34;29.50;75.20
40053;DHT22;25758;48.200;16.338;2022-08-19T11:29:00;29.50;74.50
40053;DHT22;25758;48.200;16.338;2022-08-19T11:31:29;29.50;74.70
40053;DHT22;25758;48.200;16.338;2022-08-19T11:34:00;29.50;75.70
40053;DHT22;25758;48.200;16.338;2022-08-19T11:36:27;29.40;75.60
40053;DHT22;25758;48.200;16.338;2022-08-19T11:38:54;29.40;76.40
40053;DHT22;25758;48.200;16.338;2022-08-19T11:41:21;29.40;76.50
40053;DHT22;25758;48.200;16.338;2022-08-19T11:43:48;29.40;74.70
40053;DHT22;25758;48.200;16.338;2022-08-19T11:46:15;29.40;73.40
40053;DHT22;25758;48.200;16.338;2022-08-19T11:48:41;29.40;73.60
40053;DHT22;25758;48.200;16.338;2022-08-19T11:51:10;29.30;73.50
40053;DHT22;25758;48.200;16.338;2022-08-19T11:53:37;29.30;73.80
40053;DHT22;25758;48.200;16.338;2022-08-19T11:56:04;29.30;72.90
40053;DHT22;25758;48.200;16.338;2022-08-19T11:58:31;29.30;72.80
40053;DHT22;25758;48.200;16.338;2022-08-19T12:00:57;29.40;71.70
40053;DHT22;25758;48.200;16.338;2022-08-19T12:03:23;29.50;72.20
40053;DHT22;25758;48.200;16.338;2022-08-19T12:05:49;29.60;71.20
40053;DHT22;25758;48.200;16.338;2022-08-19T12:08:16;29.60;71.70
40053;DHT22;25758;48.200;16.338;2022-08-19T12:10:42;29.60;71.40
40053;DHT22;25758;48.200;16.338;2022-08-19T12:13:09;29.60;71.60
40053;DHT22;25758;48.200;16.338;2022-08-19T12:15:36;29.40;71.70
40053;DHT22;25758;48.200;16.338;2022-08-19T12:18:03;29.50;71.50
40053;DHT22;25758;48.200;16.338;2022-08-19T12:20:28;29.50;71.60
40053;DHT22;25758;48.200;16.338;2022-08-19T12:22:54;29.40;71.80
40053;DHT22;25758;48.200;16.338;2022-08-19T12:25:20;29.50;72.40
40053;DHT22;25758;48.200;16.338;2022-08-19T12:27:46;29.50;72.20
40053;DHT22;25758;48.200;16.338;2022-08-19T12:30:13;29.50;72.50
40053;DHT22;25758;48.200;16.338;2022-08-19T12:32:39;29.60;72.40
40053;DHT22;25758;48.200;16.338;2022-08-19T12:35:06;29.70;72.80
40053;DHT22;25758;48.200;16.338;2022-08-19T12:37:32;29.70;73.50
40053;DHT22;25758;48.200;16.338;2022-08-19T12:39:57;29.60;74.30
40053;DHT22;25758;48.200;16.338;2022-08-19T12:42:23;29.60;74.50
40053;DHT22;25758;48.200;16.338;2022-08-19T12:44:49;29.50;75.30
40053;DHT22;25758;48.200;16.338;2022-08-19T12:47:17;29.40;73.70
40053;DHT22;25758;48.200;16.338;2022-08-19T12:49:42;29.40;73.70
40053;DHT22;25758;48.200;16.338;2022-08-19T12:52:10;29.30;73.00
40053;DHT22;25758;48.200;16.338;2022-08-19T12:54:37;29.20;73.20
40053;DHT22;25758;48.200;16.338;2022-08-19T12:57:06;29.10;74.30
40053;DHT22;25758;48.200;16.338;2022-08-19T12:59:34;29.10;75.10
40053;DHT22;25758;48.200;16.338;2022-08-19T13:02:02;29.00;75.90
40053;DHT22;25758;48.200;16.338;2022-08-19T13:04:29;29.00;76.60
40053;DHT22;25758;48.200;16.338;2022-08-19T13:06:54;29.00;76.30
40053;DHT22;25758;48.200;16.338;2022-08-19T13:09:20;28.90;76.30
40053;DHT22;25758;48.200;16.338;2022-08-19T13:11:45;28.80;76.30
40053;DHT22;25758;48.200;16.338;2022-08-19T13:14:11;28.70;76.70
40053;DHT22;25758;48.200;16.338;2022-08-19T13:16:37;28.70;76.60
40053;DHT22;25758;48.200;16.338;2022-08-19T13:19:04;28.70;76.70
40053;DHT22;25758;48.200;16.338;2022-08-19T13:21:31;28.60;76.80
40053;DHT22;25758;48.200;16.338;2022-08-19T13:23:57;28.60;76.70
40053;DHT22;25758;48.200;16.338;2022-08-19T13:26:23;28.50;76.60
40053;DHT22;25758;48.200;16.338;2022-08-19T13:28:49;28.50;76.40
40053;DHT22;25758;48.200;16.338;2022-08-19T13:31:35;28.50;76.80
40053;DHT22;25758;48.200;16.338;2022-08-19T13:34:27;28.50;76.80
40053;DHT22;25758;48.200;16.338;2022-08-19T13:36:54;28.40;76.90
40053;DHT22;25758;48.200;16.338;2022-08-19T13:39:19;28.30;77.20
40053;DHT22;25758;48.200;16.338;2022-08-19T13:41:46;28.30;77.70
40053;DHT22;25758;48.200;16.338;2022-08-19T13:44:14;28.30;77.90
40053;DHT22;25758;48.200;16.338;2022-08-19T13:46:41;28.20;78.30
40053;DHT22;25758;48.200;16.338;2022-08-19T13:49:11;28.20;79.50
40053;DHT22;25758;48.200;16.338;2022-08-19T13:51:38;28.20;79.80
40053;DHT22;25758;48.200;16.338;2022-08-19T13:54:08;28.20;80.20
40053;DHT22;25758;48.200;16.338;2022-08-19T13:56:35;28.20;79.70
40053;DHT22;25758;48.200;16.338;2022-08-19T13:59:04;28.10;79.70
40053;DHT22;25758;48.200;16.338;2022-08-19T14:01:30;28.00;79.30
40053;DHT22;25758;48.200;16.338;2022-08-19T14:03:55;28.00;79.50
40053;DHT22;25758;48.200;16.338;2022-08-19T14:06:21;28.00;79.30
40053;DHT22;25758;48.200;16.338;2022-08-19T14:08:47;27.90;79.40
40053;DHT22;25758;48.200;16.338;2022-08-19T14:11:14;27.90;79.70
40053;DHT22;25758;48.200;16.338;2022-08-19T14:13:40;27.90;80.10
40053;DHT22;25758;48.200;16.338;2022-08-19T14:16:10;27.90;79.60
40053;DHT22;25758;48.200;16.338;2022-08-19T14:18:37;27.90;78.70
40053;DHT22;25758;48.200;16.338;2022-08-19T14:21:04;28.00;78.60
40053;DHT22;25758;48.200;16.338;2022-08-19T14:23:30;28.00;78.40
40053;DHT22;25758;48.200;16.338;2022-08-19T14:26:06;28.00;77.90
40053;DHT22;25758;48.200;16.338;2022-08-19T14:28:32;28.00;77.30
40053;DHT22;25758;48.200;16.338;2022-08-19T14:30:58;28.00;77.60
40053;DHT22;25758;48.200;16.338;2022-08-19T14:33:24;28.10;78.10
40053;DHT22;25758;48.200;16.338;2022-08-19T14:35:49;28.10;78.40
40053;DHT22;25758;48.200;16.338;2022-08-19T14:38:17;28.10;78.70
40053;DHT22;25758;48.200;16.338;2022-08-19T14:40:43;28.20;79.10
40053;DHT22;25758;48.200;16.338;2022-08-19T14:43:09;28.10;79.40
40053;DHT22;25758;48.200;16.338;2022-08-19T14:45:37;28.10;79.30
40053;DHT22;25758;48.200;16.338;2022-08-19T14:48:04;28.10;78.40
40053;DHT22;25758;48.200;16.338;2022-08-19T14:50:30;28.10;77.90
40053;DHT22;25758;48.200;16.338;2022-08-19T14:53:04;28.10;75.90
40053;DHT22;25758;48.200;16.338;2022-08-19T14:55:31;28.00;75.10
40053;DHT22;25758;48.200;16.338;2022-08-19T14:57:58;28.00;76.00
40053;DHT22;25758;48.200;16.338;2022-08-19T15:00:24;28.00;76.60
40053;DHT22;25758;48.200;16.338;2022-08-19T15:02:50;27.90;75.90
40053;DHT22;25758;48.200;16.338;2022-08-19T15:05:16;28.00;75.40
40053;DHT22;25758;48.200;16.338;2022-08-19T15:07:42;28.00;74.30
40053;DHT22;25758;48.200;16.338;2022-08-19T15:10:10;28.00;74.90
40053;DHT22;25758;48.200;16.338;2022-08-19T15:12:37;28.10;74.30
40053;DHT22;25758;48.200;16.338;2022-08-19T15:15:10;28.00;74.60
40053;DHT22;25758;48.200;16.338;2022-08-19T15:17:41;27.00;74.00
40053;DHT22;25758;48.200;16.338;2022-08-19T15:20:07;27.50;75.00
40053;DHT22;25758;48.200;16.338;2022-08-19T15:22:33;27.90;75.50
40053;DHT22;25758;48.200;16.338;2022-08-19T15:25:00;27.90;75.60
40053;DHT22;25758;48.200;16.338;2022-08-19T15:27:26;28.00;75.70
40053;DHT22;25758;48.200;16.338;2022-08-19T15:29:52;28.00;75.40
40053;DHT22;25758;48.200;16.338;2022-08-19T15:32:18;28.00;75.20
40053;DHT22;25758;48.200;16.338;2022-08-19T15:34:44;28.00;74.90